Lake Clark National Park, AK

6:39 AM AKDT on July 24, 2014 (GMT -0800)
RAWS SNIPE LAKE AK US (MSNIA2) Elev 2314 ft | 60.61 °N, 154.32 °W | Change Station

Current weather conditions updated 35 minutes ago

Light Rain
Light Rain
48 °F
Feels Like 48 °F
N
2
Wind Variable Wind from SE
Gusts 12.0 mph

Today is forecast to be Cooler than yesterday. Showers.

Today
High -- | Low -- °F
--% Chance of Precip.
Yesterday
High -- | Low -- °F
Precip. -- in
5:38 AM 11:09 PM
Waning Crescent, 5% visible
Pressure 29.83 in
Visibility 0.5 miles
Clouds Overcast 300 ft
Windchill 48 °F
Dew Point 47 °F
Humidity 96%
Rainfall 0.20 in
Snow Depth Not available.
UV 0 out of 12
Pollen Not available.
Air Quality Not available.
Flu Activity Not available.
METAR PASV 241355Z 00000KT 1/2SM -RA OVC003 08/08 A2982 RMK AO2A SLP100 RWY WET BWC LOW

More Conditions Fewer Conditions

Pressure 29.83 in
Visibility 0.5 miles
Clouds Overcast 300 ft
Windchill 48 °F
Dew Point 47 °F
Humidity 96%
Rainfall 0.20 in
Snow Depth Not available.
UV 0 out of 12
Pollen Not available.
Air Quality Not available.
Flu Activity Not available.
METAR PASV 241355Z 00000KT 1/2SM -RA OVC003 08/08 A2982 RMK AO2A SLP100 RWY WET BWC LOW

More Conditions Fewer Conditions

10-Day Weather Forecast

Almanac

Astronomy

Jul. 24, 2014 Rise Set
Actual Time 5:38 AM AKDT 11:09 PM AKDT
Civil Twilight 4:28 AM AKDT 12:18 AM AKDT
Nautical Twilight 2:57 AM AKDT 1:52 AM AKDT
Astronomical Twilight Sun does not rise Sun does not rise
Moon 4:04 AM AKDT 9:19 PM AKDT
Length of Visible Light 19h 49m
Length of Day
17h 31m
Tomorrow will be 4m 36s shorter.
Waning Crescent, 5% of the Moon is Illuminated
Today
Waning Crescent
Jul 26
New
Aug 3
First Quarter
Aug 10
Full
Aug 17
Last Quarter

Today's Extremes

State Highs State Lows

Community

WunderPhotos

Upload Photos

1,737,023 photos uploaded!

Nearby

Snow Depth

Station Depth Elevation
Mcneil Canyon 1 in 1320 ft
Port Graham 0 in 300 ft
MF Bradley River 28 in 2300 ft
Cooper Lake 4 in 1200 ft
Point Mackenzie 1 in 200 ft

Earthquake Activity

City Distance Mag. Time & Date
No recent earthquake activity has been reported nearby.
Minimum magnitude displayed is 2.5.

Coastal Water Temperatures

Place Temperature
No Stations Reporting

Nearby Weather Stations

Station Location Temp. Windchill Dew Point Humidity Wind Precip. Elev Updated Type
RAWS SNIPE LAKE AK, Port Alsworth, AK 48 °F 48 °F 47 °F 96% SE  at  2 mph 0.01 in / hr 2314 ft 6:04 AM AKDT MADIS
RAWS PORT ALSWORTH AK, Port Alsworth, AK 51 °F - 50 °F 98% WSW  at  3 mph 0.02 in / hr 320 ft 5:57 AM AKDT MADIS
CRN LAKE CLARK NP PORT ALSWORTH 1 SW AK , Port Alsworth, AK 52 °F - - - North  at  - 0.00 in / hr 320 ft 5:15 AM AKDT MADIS

Show More Stations Show Fewer Stations